Time;durP1;ratioP1;P1;durP2;ratioP2;P2;SDS_P1;SDS_P2;PMS_P1;PMS_P2;Temp;Humidity;BMP_temperature;BMP_pressure;BME280_temperature;BME280_humidity;BME280_pressure;Samples;Min_cycle;Max_cycle;Signal;HPM_P1;HPM_P2
2022/06/04 12:13:49;;;;;;;6.70;3.42;;;;;;;29.74;40.21;99010.84;5144809;27;20172;-71
2022/06/04 12:16:21;;;;;;;7.20;3.10;;;;;;;29.96;40.29;99009.50;5143616;27;20051;-70
2022/06/04 12:18:56;;;;;;;4.72;2.00;;;;;;;30.00;39.30;99021.66;5143624;27;20051;-71
2022/06/04 12:24:31;;;;;;;4.43;2.88;;;;;;;29.87;38.13;99017.09;5143834;28;20047;-70
2022/06/04 12:27:08;;;;;;;4.80;2.90;;;;;;;29.91;38.79;99025.69;5143171;27;20062;-71
2022/06/04 12:29:46;;;;;;;5.93;3.15;;;;;;;29.67;38.22;98975.38;5143793;27;20051;-71
2022/06/04 12:32:24;;;;;;;4.90;2.90;;;;;;;29.64;39.14;98968.47;5143429;27;20074;-71
2022/06/04 12:35:03;;;;;;;4.30;2.30;;;;;;;29.81;41.14;99009.78;5143301;28;20058;-71
2022/06/04 12:37:32;;;;;;;6.20;2.70;;;;;;;29.65;40.96;99016.56;5143323;27;20139;-71
2022/06/04 12:40:13;;;;;;;4.30;3.10;;;;;;;29.73;41.18;99011.91;5142763;27;20062;-71
2022/06/04 12:42:40;;;;;;;6.97;3.80;;;;;;;29.86;41.05;99020.06;5143077;27;20061;-70
2022/06/04 12:45:34;;;;;;;3.20;2.10;;;;;;;29.66;38.16;98984.63;5143388;27;20055;-69
2022/06/04 12:48:02;;;;;;;;;;;;;;;29.83;38.23;99025.94;5143419;27;20333;-70
2022/06/04 12:50:36;;;;;;;5.18;2.05;;;;;;;29.83;41.05;99029.50;5143353;27;19916;-69
2022/06/04 12:53:12;;;;;;;5.95;2.80;;;;;;;29.76;40.53;99027.88;5143348;27;20085;-70
2022/06/04 12:55:52;;;;;;;4.93;2.63;;;;;;;29.71;39.02;99023.06;5143474;27;20051;-71
2022/06/04 12:58:30;;;;;;;5.05;2.53;;;;;;;29.63;38.87;99037.78;5143220;27;20056;-71
2022/06/04 13:01:00;;;;;;;4.85;2.63;;;;;;;29.25;41.85;98969.41;5143093;27;20047;-71
2022/06/04 13:03:40;;;;;;;6.15;2.90;;;;;;;29.80;41.04;99020.91;5142707;27;20055;-71
2022/06/04 13:06:32;;;;;;;5.25;3.17;;;;;;;29.86;39.20;99007.22;5142725;27;20055;-70
2022/06/04 13:09:12;;;;;;;5.57;3.72;;;;;;;29.43;39.66;98932.41;5142626;27;20051;-71
2022/06/04 13:11:51;;;;;;;5.90;3.10;;;;;;;29.98;39.95;99024.63;5142246;28;20055;-71
2022/06/04 13:14:29;;;;;;;9.60;7.60;;;;;;;29.84;39.08;98987.50;5142900;27;20207;-70
2022/06/04 13:17:11;;;;;;;6.10;5.50;;;;;;;30.07;39.74;99024.38;5142505;27;20051;-71
2022/06/04 13:20:08;;;;;;;11.27;10.15;;;;;;;30.10;38.36;99035.69;5142604;27;20055;-70
2022/06/04 13:22:43;;;;;;;6.47;5.40;;;;;;;30.08;39.18;99032.34;5142325;27;20340;-71
2022/06/04 13:25:16;;;;;;;5.80;4.25;;;;;;;30.09;38.50;99017.63;5127875;28;20066;-71
2022/06/04 13:27:53;;;;;;;5.88;4.68;;;;;;;30.11;40.57;99020.97;5128614;27;20051;-70
2022/06/04 13:30:24;;;;;;;5.07;3.75;;;;;;;30.18;41.44;99018.25;5128380;28;20055;-70
2022/06/04 13:32:53;;;;;;;5.82;4.20;;;;;;;30.19;40.77;99008.97;5128359;28;20098;-71
2022/06/04 13:35:23;;;;;;;8.45;5.38;;;;;;;30.12;41.16;99003.53;5128918;28;20055;-70
2022/06/04 13:37:52;;;;;;;5.43;4.93;;;;;;;30.10;40.62;99000.19;5127973;28;20055;-70
2022/06/04 13:40:23;;;;;;;4.15;3.20;;;;;;;30.10;40.59;98994.72;5128498;28;20056;-69
2022/06/04 13:42:54;;;;;;;6.85;5.25;;;;;;;29.96;40.17;98990.38;5128282;28;20052;-70
2022/06/04 13:45:28;;;;;;;9.73;7.22;;;;;;;30.07;39.36;99011.53;5127966;28;20051;-69
2022/06/04 13:47:59;;;;;;;6.55;5.00;;;;;;;30.04;39.58;99004.63;5128036;28;20062;-70
2022/06/04 13:50:29;;;;;;;6.78;4.10;;;;;;;30.03;40.13;99013.03;5127789;28;20313;-70
2022/06/04 13:53:00;;;;;;;5.95;2.97;;;;;;;29.76;39.75;98970.50;5127432;28;20058;-70
2022/06/04 13:55:31;;;;;;;7.65;2.88;;;;;;;29.62;40.55;98961.53;5128027;28;20066;-70
2022/06/04 13:58:02;;;;;;;5.63;3.33;;;;;;;29.77;41.10;98999.50;5127499;28;20065;-70
2022/06/04 14:00:32;;;;;;;5.90;3.08;;;;;;;29.82;41.10;99016.06;5128034;28;20055;-70
2022/06/04 14:03:10;;;;;;;3.47;2.80;;;;;;;29.74;40.22;99019.06;5127959;28;20051;-70
2022/06/04 14:05:44;;;;;;;4.25;2.90;;;;;;;29.71;40.77;99017.59;5127998;28;20311;-70
2022/06/04 14:08:13;;;;;;;3.53;2.35;;;;;;;29.69;40.45;99012.34;5127931;27;20059;-69
2022/06/04 14:10:42;;;;;;;4.22;2.83;;;;;;;29.67;40.56;99016.34;5128426;28;20055;-70
2022/06/04 14:13:20;;;;;;;6.55;2.63;;;;;;;29.67;39.79;99005.41;5127058;28;20052;-70
2022/06/04 14:16:07;;;;;;;5.43;3.47;;;;;;;29.35;39.39;98983.44;5127720;28;20063;-69
2022/06/04 14:19:04;;;;;;;4.35;3.33;;;;;;;29.85;39.20;99018.38;5127788;28;20063;-71
2022/06/04 14:21:45;;;;;;;5.15;3.25;;;;;;;29.89;39.21;99016.88;5125231;28;20056;-70
2022/06/04 14:24:24;;;;;;;4.55;3.08;;;;;;;29.91;39.12;99014.78;5127818;28;20055;-70
2022/06/04 14:27:02;;;;;;;5.07;3.35;;;;;;;29.90;39.19;99002.16;5127620;28;20052;-70
2022/06/04 14:29:40;;;;;;;4.97;2.95;;;;;;;29.90;38.00;99007.63;5127378;28;20215;-70
2022/06/04 14:32:21;;;;;;;3.88;2.75;;;;;;;29.77;37.71;98985.84;5127051;28;20337;-69
2022/06/04 14:34:48;;;;;;;4.18;2.97;;;;;;;29.89;38.90;99001.34;5126547;28;20062;-70
2022/06/04 14:37:24;;;;;;;3.67;2.50;;;;;;;29.87;37.42;98992.53;5127115;28;20052;-69
2022/06/04 14:39:53;;;;;;;3.55;2.35;;;;;;;29.81;38.97;98995.28;5127010;28;20055;-70
2022/06/04 14:43:00;;;;;;;6.07;2.80;;;;;;;29.80;37.77;98990.88;5127115;28;20055;-69
2022/06/04 14:45:40;;;;;;;4.18;2.90;;;;;;;29.76;37.78;98987.75;5123196;28;20060;-70
2022/06/04 14:48:47;;;;;;;5.05;2.75;;;;;;;29.77;37.88;98994.03;5126971;28;20342;-70
2022/06/04 14:51:38;;;;;;;4.68;3.13;;;;;;;29.74;37.98;98995.31;5127019;28;20048;-70
2022/06/04 14:54:10;;;;;;;5.70;3.05;;;;;;;29.76;38.90;99001.41;5126567;28;20059;-70
2022/06/04 14:56:58;;;;;;;4.93;2.60;;;;;;;29.82;38.42;98994.22;5127057;28;20055;-70
2022/06/04 14:59:41;;;;;;;5.13;2.95;;;;;;;29.84;38.52;98981.19;5126672;28;20059;-70
2022/06/04 15:02:24;;;;;;;5.40;3.25;;;;;;;29.83;38.09;98988.53;5126569;28;20063;-70
2022/06/04 15:05:29;;;;;;;3.55;2.60;;;;;;;29.82;36.98;98986.03;5127046;28;20150;-70
2022/06/04 15:08:32;;;;;;;4.38;2.88;;;;;;;29.78;37.12;98988.34;5126811;28;20074;-70
2022/06/04 15:11:22;;;;;;;4.57;4.18;;;;;;;29.71;36.93;98965.69;5125597;28;20051;-69
2022/06/04 15:14:07;;;;;;;4.38;3.17;;;;;;;29.61;36.97;98962.59;5085793;28;20044;-70
2022/06/04 15:16:45;;;;;;;4.07;3.38;;;;;;;29.57;37.54;98978.53;5086319;28;20300;-71
2022/06/04 15:19:31;;;;;;;4.50;3.08;;;;;;;29.57;36.73;98981.28;5085705;28;20053;-71
2022/06/04 15:22:13;;;;;;;7.15;3.05;;;;;;;29.50;37.02;98980.47;5085902;28;20060;-71
2022/06/04 15:24:53;;;;;;;6.03;4.65;;;;;;;29.50;37.19;98988.66;5085826;28;20102;-71
2022/06/04 15:27:43;;;;;;;5.50;3.60;;;;;;;29.49;37.20;98978.78;5085915;28;20117;-71
2022/06/04 15:36:14;;;;;;;5.20;3.88;;;;;;;29.36;38.02;98978.81;5084944;28;20181;-70
2022/06/04 15:38:48;;;;;;;5.57;3.30;;;;;;;29.42;37.92;99002.53;5085042;28;20106;-71
2022/06/04 15:41:30;;;;;;;5.25;4.38;;;;;;;29.37;37.63;98997.72;5086326;28;20064;-71
2022/06/04 15:44:09;;;;;;;4.00;3.25;;;;;;;29.33;37.71;98991.00;5085090;28;20079;-71
2022/06/04 15:46:42;;;;;;;4.93;3.17;;;;;;;29.33;38.29;99006.53;5085037;28;20166;-71
2022/06/04 15:49:13;;;;;;;8.05;4.75;;;;;;;29.32;38.20;99007.59;5085334;28;20056;-71
2022/06/04 15:57:38;;;;;;;10.20;3.35;;;;;;;29.13;39.69;99058.44;5085168;28;20086;-71
2022/06/04 16:00:19;;;;;;;6.18;2.72;;;;;;;28.83;40.23;99073.50;5085133;28;20051;-70
2022/06/04 16:02:48;;;;;;;5.03;2.80;;;;;;;28.36;40.87;99057.03;5084874;28;20057;-70
2022/06/04 16:05:21;;;;;;;6.03;3.00;;;;;;;28.38;41.62;99081.38;5084675;28;20061;-70
2022/06/04 16:08:02;;;;;;;6.35;2.35;;;;;;;28.05;42.75;99101.16;5084362;28;20106;-70
2022/06/04 16:10:42;;;;;;;5.45;2.92;;;;;;;27.75;43.12;99076.06;5084953;28;20197;-70
2022/06/04 16:13:20;;;;;;;4.75;2.05;;;;;;;27.53;42.46;99060.84;5117892;28;20052;-70
2022/06/04 16:16:16;;;;;;;4.43;2.40;;;;;;;27.29;42.29;99054.00;5125675;28;20063;-70
2022/06/04 16:19:12;;;;;;;4.20;2.13;;;;;;;27.10;42.08;99044.63;5125702;28;20101;-70
2022/06/04 16:21:49;;;;;;;3.88;2.65;;;;;;;26.97;42.29;99028.19;5125661;28;20097;-70
2022/06/04 16:24:28;;;;;;;5.80;3.35;;;;;;;26.93;41.53;99024.19;5125258;28;20045;-70
2022/06/04 16:26:58;;;;;;;7.70;3.03;;;;;;;26.91;41.67;99009.97;5125220;28;20100;-69
2022/06/04 16:29:28;;;;;;;5.05;3.50;;;;;;;26.92;41.34;99010.78;5125440;28;20039;-70
2022/06/04 16:32:11;;;;;;;6.22;3.83;;;;;;;26.83;40.71;98982.91;5125705;28;20051;-70
2022/06/04 16:35:03;;;;;;;4.38;3.13;;;;;;;26.97;40.31;99008.31;5125136;28;20077;-70
2022/06/04 16:37:34;;;;;;;5.75;3.42;;;;;;;26.91;40.92;99015.41;5125223;28;20116;-69
2022/06/04 16:40:04;;;;;;;5.50;4.07;;;;;;;26.89;41.16;99003.88;5125378;28;20055;-71
2022/06/04 16:42:41;;;;;;;5.03;3.70;;;;;;;26.89;40.67;99009.31;5125382;28;20056;-70
2022/06/04 16:45:11;;;;;;;5.38;3.58;;;;;;;26.79;40.94;98996.06;5125122;28;20117;-70
2022/06/04 16:47:52;;;;;;;4.45;3.42;;;;;;;26.84;39.82;99006.34;5125314;28;20048;-70
2022/06/04 16:50:21;;;;;;;5.68;3.58;;;;;;;26.79;40.69;99015.09;5125301;28;20077;-70
2022/06/04 16:52:50;;;;;;;5.95;3.47;;;;;;;26.70;40.63;98999.97;5125764;28;20250;-70
2022/06/04 16:55:23;;;;;;;5.80;3.80;;;;;;;26.75;40.90;99008.38;5124976;28;20176;-70
2022/06/04 16:57:53;;;;;;;7.63;3.38;;;;;;;26.73;40.22;98998.72;5124807;28;20319;-70
2022/06/04 17:00:22;;;;;;;14.00;12.60;;;;;;;26.68;40.12;99001.19;5128862;28;20249;-70
2022/06/04 17:03:18;;;;;;;9.50;7.63;;;;;;;26.62;39.73;98999.25;5129008;27;20036;-70
2022/06/04 17:05:58;;;;;;;7.60;5.10;;;;;;;26.54;40.27;99001.06;5128191;28;20101;-70
2022/06/04 17:08:48;;;;;;;4.70;3.53;;;;;;;26.48;39.79;99009.16;5128965;28;20081;-70
2022/06/04 17:11:25;;;;;;;6.10;3.70;;;;;;;26.41;40.06;99006.38;5128753;27;20168;-70
2022/06/04 17:14:03;;;;;;;9.68;7.80;;;;;;;26.37;39.86;98999.63;5128657;28;20051;-70
2022/06/04 17:16:38;;;;;;;7.65;5.28;;;;;;;25.96;39.93;98930.66;5128622;28;20062;-70
2022/06/04 17:19:25;;;;;;;4.50;3.38;;;;;;;26.36;39.35;98999.84;5128699;28;20059;-69
2022/06/04 17:22:11;;;;;;;6.85;4.68;;;;;;;26.37;40.03;98993.38;5128651;28;20249;-70
2022/06/04 17:24:57;;;;;;;4.40;3.35;;;;;;;25.46;39.73;98846.44;5128824;28;20060;-70
2022/06/04 17:27:33;;;;;;;4.13;2.83;;;;;;;26.38;39.91;99008.63;5128710;28;20063;-70
2022/06/04 17:30:06;;;;;;;4.05;2.10;;;;;;;26.38;39.85;99012.19;5128476;28;20214;-70
2022/06/04 17:32:42;;;;;;;4.07;2.17;;;;;;;26.24;40.34;98983.22;5128468;28;20051;-70
2022/06/04 17:35:20;;;;;;;3.15;1.92;;;;;;;26.37;40.60;99009.66;5128434;28;20109;-70
2022/06/04 17:38:01;;;;;;;3.53;1.83;;;;;;;26.33;41.30;99019.22;5128789;27;20059;-71
2022/06/04 17:40:35;;;;;;;3.95;2.10;;;;;;;26.27;41.55;99037.16;5128336;28;20233;-70
2022/06/04 17:43:02;;;;;;;;;;;;;;;26.17;42.18;99042.06;5128523;28;20101;-70
2022/06/04 17:45:29;;;;;;;2.95;1.80;;;;;;;26.17;41.83;99042.91;5127768;28;19915;-70
2022/06/04 17:47:57;;;;;;;4.70;2.13;;;;;;;26.09;41.99;99034.88;5127973;28;20085;-70
2022/06/04 17:50:26;;;;;;;3.42;2.00;;;;;;;26.17;41.93;99055.63;5128630;28;20056;-70
2022/06/04 17:52:54;;;;;;;3.25;2.30;;;;;;;26.17;41.96;99069.22;5128186;28;20047;-70
2022/06/04 17:55:21;;;;;;;3.17;2.20;;;;;;;26.13;42.26;99078.78;5128130;28;20052;-70
2022/06/04 17:57:49;;;;;;;4.60;2.10;;;;;;;26.06;42.37;99088.72;5128086;28;20113;-70
2022/06/04 18:00:22;;;;;;;5.47;2.53;;;;;;;26.02;42.46;99092.84;5127823;28;20260;-70
2022/06/04 18:02:51;;;;;;;4.97;3.65;;;;;;;26.01;42.75;99104.72;5127795;27;20056;-69
2022/06/04 18:05:21;;;;;;;4.70;3.65;;;;;;;26.00;42.68;99103.06;5127763;28;20048;-68
2022/06/04 18:07:50;;;;;;;7.90;4.18;;;;;;;25.96;42.69;99108.00;5127429;28;20055;-69
2022/06/04 18:10:18;;;;;;;6.00;4.15;;;;;;;25.95;42.81;99113.59;5127392;28;20044;-68
2022/06/04 18:12:46;;;;;;;6.25;4.70;;;;;;;25.35;42.96;99009.69;5127316;28;20116;-68
2022/06/04 18:15:14;;;;;;;4.72;3.25;;;;;;;25.94;42.88;99104.63;5127124;28;20048;-68
2022/06/04 18:17:42;;;;;;;6.97;4.97;;;;;;;25.72;42.80;99081.97;5127110;28;20064;-69
2022/06/04 18:20:11;;;;;;;5.63;3.50;;;;;;;25.77;43.04;99098.56;5126638;28;20221;-68
2022/06/04 18:22:38;;;;;;;5.18;4.30;;;;;;;25.20;43.00;99028.63;5126914;28;20077;-69
2022/06/04 18:25:10;;;;;;;7.25;4.63;;;;;;;25.74;42.72;99139.63;5126570;28;20059;-68
2022/06/04 18:27:38;;;;;;;7.60;5.13;;;;;;;24.62;42.55;98967.81;5127259;28;20109;-70
2022/06/04 18:30:06;;;;;;;5.07;4.22;;;;;;;25.54;42.53;99136.63;5127219;28;20115;-69
2022/06/04 18:32:33;;;;;;;5.45;4.20;;;;;;;25.62;42.53;99170.97;5127320;28;20249;-69
2022/06/04 18:35:01;;;;;;;5.32;4.28;;;;;;;25.63;42.90;99180.81;5126995;28;20058;-69
2022/06/04 18:37:28;;;;;;;3.92;3.25;;;;;;;25.63;42.70;99172.66;5127081;28;20105;-68
2022/06/04 18:39:56;;;;;;;6.72;3.90;;;;;;;25.63;42.58;99190.81;5127321;28;20367;-69
2022/06/04 18:56:10;;;;;;;6.00;5.40;;;;;;;25.42;44.06;99292.75;5127118;28;20081;-69
2022/06/04 18:58:39;;;;;;;4.93;4.13;;;;;;;25.36;44.67;99347.72;5126917;28;20055;-68
2022/06/04 19:01:06;;;;;;;7.32;3.90;;;;;;;25.30;45.31;99350.28;5126686;28;20055;-68
2022/06/04 19:03:36;;;;;;;4.75;3.25;;;;;;;25.18;46.11;99366.09;5126819;28;20093;-68
2022/06/04 19:06:03;;;;;;;4.00;3.10;;;;;;;25.03;47.39;99348.91;5126792;28;20368;-69
2022/06/04 19:08:31;;;;;;;8.48;3.85;;;;;;;24.51;50.11;99281.66;5126895;27;20047;-69
2022/06/04 19:13:50;;;;;;;8.68;4.35;;;;;;;24.53;54.67;99193.78;5126672;28;20085;-68
2022/06/04 19:16:19;;;;;;;8.32;4.60;;;;;;;24.10;55.37;99129.34;5126651;28;20056;-67
2022/06/04 19:18:51;;;;;;;14.55;6.82;;;;;;;24.09;54.87;99106.00;5126311;28;20116;-69
2022/06/04 19:26:48;;;;;;;28.23;12.07;;;;;;;24.22;55.31;99219.97;5126442;28;20039;-68
2022/06/04 19:29:17;;;;;;;10.02;6.75;;;;;;;24.26;55.97;99234.84;5126241;28;20164;-68
2022/06/04 19:31:45;;;;;;;11.43;6.38;;;;;;;24.30;55.30;99236.19;5126098;28;20113;-69
2022/06/04 19:34:12;;;;;;;9.90;4.97;;;;;;;24.29;56.11;99239.94;5126438;28;20229;-68
2022/06/04 19:36:40;;;;;;;5.07;4.00;;;;;;;24.13;56.56;99240.81;5126377;28;20059;-69
2022/06/04 19:39:08;;;;;;;6.35;4.07;;;;;;;24.00;56.69;99221.59;5126391;28;20055;-69
2022/06/04 19:41:36;;;;;;;5.45;4.05;;;;;;;23.23;57.03;99112.97;5126059;28;20055;-69
2022/06/04 19:44:04;;;;;;;7.50;4.72;;;;;;;23.96;56.89;99237.28;5125998;28;20437;-69
2022/06/04 19:46:32;;;;;;;4.20;3.60;;;;;;;24.06;57.48;99234.41;5126052;28;20048;-69
2022/06/04 19:49:00;;;;;;;5.53;3.97;;;;;;;24.05;57.44;99235.44;5126090;28;20059;-68
2022/06/04 19:51:27;;;;;;;5.35;3.85;;;;;;;24.00;57.68;99224.28;5126239;28;20047;-68
2022/06/04 19:56:39;;;;;;;9.60;4.95;;;;;;;23.93;58.02;99234.94;5126418;28;20237;-69
2022/06/04 19:59:06;;;;;;;4.85;3.78;;;;;;;23.94;57.13;99238.47;5125927;28;20056;-67
2022/06/04 20:01:34;;;;;;;4.85;3.05;;;;;;;23.92;57.06;99245.94;5126228;28;20048;-67
2022/06/04 20:04:01;;;;;;;5.88;3.80;;;;;;;23.89;57.29;99254.38;5126290;28;20051;-69
2022/06/04 20:06:29;;;;;;;7.40;3.50;;;;;;;23.90;57.68;99256.06;5126087;28;20291;-69
2022/06/04 20:08:56;;;;;;;3.70;3.08;;;;;;;23.80;58.00;99250.84;5126082;28;20055;-69
2022/06/04 20:11:23;;;;;;;34.50;6.78;;;;;;;23.79;58.16;99257.28;5125918;28;20108;-71
2022/06/04 20:13:51;;;;;;;8.90;3.13;;;;;;;23.79;58.30;99251.03;5125819;28;20368;-71
2022/06/04 20:16:18;;;;;;;4.07;3.40;;;;;;;23.74;58.70;99250.69;5125974;28;20051;-72
2022/06/04 20:18:47;;;;;;;5.78;4.15;;;;;;;23.75;58.72;99246.97;5125964;28;20096;-71
2022/06/04 20:21:18;;;;;;;5.97;5.10;;;;;;;23.77;58.69;99255.75;5125479;28;20116;-70
2022/06/04 20:23:46;;;;;;;6.68;5.45;;;;;;;23.52;58.73;99204.41;5125514;28;20104;-71
2022/06/04 20:26:15;;;;;;;5.70;5.00;;;;;;;23.09;58.48;99134.44;5125636;28;20266;-70
2022/06/04 20:28:42;;;;;;;5.97;4.93;;;;;;;23.60;58.75;99220.63;5125748;28;20055;-71
2022/06/04 20:31:10;;;;;;;7.28;6.57;;;;;;;23.64;59.07;99240.91;5126312;28;20085;-71
2022/06/04 20:33:38;;;;;;;6.50;4.90;;;;;;;23.51;59.56;99239.72;5126863;28;20242;-71
2022/06/04 20:36:08;;;;;;;5.70;4.55;;;;;;;23.39;60.98;99238.38;5129853;27;20101;-71
2022/06/04 20:38:36;;;;;;;9.73;6.85;;;;;;;23.34;60.18;99237.03;5129934;28;20051;-71
2022/06/04 20:41:07;;;;;;;9.57;8.50;;;;;;;23.31;60.09;99234.66;5129651;28;20059;-72
2022/06/04 20:43:35;;;;;;;8.95;7.97;;;;;;;23.34;59.72;99237.03;5129787;27;20124;-69
2022/06/04 20:46:04;;;;;;;8.85;7.95;;;;;;;23.34;59.85;99234.31;5129928;28;20051;-70
2022/06/04 20:48:32;;;;;;;7.95;6.70;;;;;;;22.97;59.75;99187.97;5129587;28;20249;-70
2022/06/04 20:51:00;;;;;;;8.88;5.68;;;;;;;23.34;59.73;99230.78;5129750;28;20097;-70
2022/06/04 20:53:28;;;;;;;6.40;5.80;;;;;;;23.38;59.27;99225.88;5129774;28;20105;-70
2022/06/04 20:55:57;;;;;;;7.75;6.10;;;;;;;23.35;59.28;99233.31;5129547;28;20051;-70
2022/06/04 20:58:24;;;;;;;7.53;6.75;;;;;;;23.29;59.96;99239.38;5129534;28;20188;-70
2022/06/04 21:00:51;;;;;;;6.85;4.70;;;;;;;23.28;59.75;99239.56;5129363;28;20055;-70
2022/06/04 21:03:19;;;;;;;12.43;10.48;;;;;;;23.27;59.52;99243.28;5129288;28;20360;-70
2022/06/04 21:05:46;;;;;;;12.45;11.15;;;;;;;23.26;59.44;99247.84;5129248;28;20051;-69
2022/06/04 21:08:13;;;;;;;18.40;15.23;;;;;;;23.23;59.71;99263.50;5129045;28;20085;-69
2022/06/04 21:10:43;;;;;;;22.55;20.42;;;;;;;23.19;60.30;99272.97;5129239;28;20256;-69
2022/06/04 21:13:10;;;;;;;15.88;14.18;;;;;;;23.16;60.29;99287.66;5128994;27;20059;-70
2022/06/04 21:15:38;;;;;;;11.68;9.82;;;;;;;23.15;59.96;99296.78;5128832;28;20055;-70
2022/06/04 21:18:06;;;;;;;8.52;7.65;;;;;;;23.14;60.10;99305.91;5129071;28;20066;-70
2022/06/04 21:20:33;;;;;;;6.00;4.95;;;;;;;23.05;60.41;99313.16;5128868;28;20093;-70
2022/06/04 21:23:00;;;;;;;5.60;4.82;;;;;;;23.04;60.46;99302.50;5128761;28;20056;-71
2022/06/04 21:25:28;;;;;;;7.05;4.40;;;;;;;23.01;60.61;99311.81;5128946;28;20059;-70
2022/06/04 21:27:57;;;;;;;6.18;5.57;;;;;;;23.00;60.76;99310.09;5128708;27;20060;-70
2022/06/04 21:30:24;;;;;;;9.93;9.00;;;;;;;22.91;61.09;99329.16;5128644;28;20260;-70
2022/06/04 21:32:51;;;;;;;11.05;10.00;;;;;;;22.86;61.14;99331.50;5128985;28;20055;-70
2022/06/04 21:38:17;;;;;;;5.47;4.78;;;;;;;22.80;60.88;99333.00;5086726;28;20048;-70
2022/06/04 21:40:44;;;;;;;5.93;4.07;;;;;;;22.76;61.06;99347.00;5086461;28;20102;-69
2022/06/04 21:43:14;;;;;;;4.70;3.75;;;;;;;22.75;60.99;99356.13;5104727;28;20112;-70
2022/06/04 21:45:42;;;;;;;5.32;3.53;;;;;;;22.52;60.64;99316.16;5128064;28;20067;-70
2022/06/04 21:48:10;;;;;;;3.65;3.17;;;;;;;22.68;60.71;99356.78;5128509;27;20313;-70
2022/06/04 21:50:40;;;;;;;3.65;2.85;;;;;;;22.63;60.73;99367.22;5128421;27;20100;-70
2022/06/04 21:53:10;;;;;;;5.95;5.13;;;;;;;22.57;60.93;99367.84;5128063;28;20063;-70
2022/06/04 21:55:39;;;;;;;12.80;4.13;;;;;;;22.53;60.61;99371.00;5128243;28;20112;-69
2022/06/04 21:58:07;;;;;;;4.20;3.30;;;;;;;22.47;60.74;99356.28;5128163;28;20085;-69
2022/06/04 22:01:20;;;;;;;5.90;4.40;;;;;;;22.42;62.36;99355.94;5128305;27;20104;-69
2022/06/04 22:03:49;;;;;;;4.60;3.33;;;;;;;22.35;60.97;99361.09;5128267;28;20059;-69
2022/06/04 22:06:16;;;;;;;5.43;3.65;;;;;;;22.38;60.84;99362.63;5128273;28;20260;-69
2022/06/04 22:08:44;;;;;;;4.63;3.70;;;;;;;22.29;61.36;99371.66;5128196;27;20055;-68
2022/06/04 22:11:15;;;;;;;6.18;4.38;;;;;;;21.95;61.23;99320.34;5128036;28;20051;-69
2022/06/04 22:13:42;;;;;;;6.03;3.70;;;;;;;22.29;61.28;99380.63;5127755;28;20112;-69
2022/06/04 22:16:10;;;;;;;10.20;8.57;;;;;;;22.22;61.42;99390.34;5128047;28;20055;-69
2022/06/04 22:18:38;;;;;;;19.23;17.10;;;;;;;22.25;61.63;99394.59;5128091;28;20102;-69
2022/06/04 22:21:07;;;;;;;11.18;8.20;;;;;;;22.28;61.54;99388.88;5128049;28;20059;-69
2022/06/04 22:23:34;;;;;;;8.18;5.63;;;;;;;22.26;61.68;99399.84;5127964;27;20048;-69
2022/06/04 22:26:03;;;;;;;6.20;4.55;;;;;;;22.23;61.39;99408.25;5127597;28;20056;-69
2022/06/04 22:28:30;;;;;;;7.45;5.88;;;;;;;22.21;61.58;99401.31;5127556;28;20244;-69
2022/06/04 22:30:57;;;;;;;6.13;4.03;;;;;;;22.17;62.00;99394.53;5127486;28;20264;-69
2022/06/04 22:33:24;;;;;;;6.20;3.55;;;;;;;22.13;61.88;99377.81;5127804;28;20093;-69
2022/06/04 22:35:52;;;;;;;5.65;3.30;;;;;;;21.88;62.15;99335.47;5127694;28;20101;-69
2022/06/04 22:38:20;;;;;;;4.47;3.55;;;;;;;22.17;61.96;99378.34;5127668;28;20048;-69
2022/06/04 22:41:03;;;;;;;4.07;3.17;;;;;;;21.72;62.39;99292.97;5127498;28;20048;-69
2022/06/04 22:43:31;;;;;;;4.05;3.10;;;;;;;22.23;61.79;99373.16;5127712;27;20104;-69
2022/06/04 22:45:58;;;;;;;6.45;5.05;;;;;;;22.24;61.29;99374.00;5127623;28;20253;-69
2022/06/04 22:48:26;;;;;;;6.75;5.25;;;;;;;22.25;61.54;99368.44;5127485;27;20063;-72
2022/06/04 22:51:02;;;;;;;5.55;3.58;;;;;;;22.26;62.21;99372.84;5127357;28;20112;-73
2022/06/04 22:53:32;;;;;;;5.07;3.78;;;;;;;22.26;61.71;99377.38;5127394;28;20064;-72
2022/06/04 22:55:59;;;;;;;7.18;4.15;;;;;;;21.89;61.58;99319.09;5125244;28;20059;-70
2022/06/04 22:58:26;;;;;;;4.45;3.80;;;;;;;22.27;61.56;99368.28;5127145;28;20077;-70
2022/06/04 23:00:54;;;;;;;6.90;3.17;;;;;;;22.25;61.61;99373.00;5127273;28;20108;-70
2022/06/04 23:03:23;;;;;;;8.80;4.93;;;;;;;22.23;61.62;99375.00;5127052;28;20257;-70
2022/06/04 23:05:50;;;;;;;6.88;5.50;;;;;;;22.19;61.45;99371.78;5127049;28;20055;-70
2022/06/04 23:08:17;;;;;;;5.47;4.88;;;;;;;22.17;61.73;99373.78;5126849;28;20051;-70
2022/06/04 23:21:47;;;;;;;4.88;4.38;;;;;;;21.93;62.07;99354.72;5127131;28;20084;-70
2022/06/04 23:24:15;;;;;;;4.80;4.20;;;;;;;21.95;61.94;99353.56;5126586;28;20055;-70
2022/06/04 23:26:44;;;;;;;5.68;4.25;;;;;;;21.97;62.05;99337.22;5126768;28;20047;-71
2022/06/04 23:29:12;;;;;;;5.85;5.25;;;;;;;21.96;62.14;99339.06;5126814;27;20053;-72
2022/06/04 23:31:39;;;;;;;5.10;4.30;;;;;;;21.96;62.24;99332.81;5126659;28;20096;-73
2022/06/04 23:34:07;;;;;;;5.40;4.65;;;;;;;21.61;61.97;99277.06;5126626;28;20101;-75
2022/06/04 23:36:35;;;;;;;4.95;4.40;;;;;;;21.97;61.91;99345.31;5126426;27;20056;-71
2022/06/04 23:39:03;;;;;;;7.97;4.47;;;;;;;21.95;62.01;99353.56;5126467;28;20063;-71
2022/06/04 23:44:16;;;;;;;5.90;3.95;;;;;;;21.09;62.18;99218.50;5126744;28;20084;-71
2022/06/04 23:46:43;;;;;;;5.95;4.53;;;;;;;21.86;62.34;99349.09;5126478;28;20051;-71
2022/06/04 23:49:11;;;;;;;6.57;4.20;;;;;;;21.90;62.37;99341.53;5126370;28;20055;-71
2022/06/04 23:51:38;;;;;;;4.78;4.28;;;;;;;21.82;62.51;99346.88;5126388;28;20253;-71
2022/06/04 23:54:07;;;;;;;7.70;4.53;;;;;;;21.81;62.68;99340.63;5126295;28;20063;-71
2022/06/04 23:56:34;;;;;;;5.25;4.43;;;;;;;21.87;62.53;99347.25;5126276;28;20063;-71
2022/06/04 23:59:01;;;;;;;5.20;4.65;;;;;;;21.88;62.39;99351.66;5125953;28;20056;-71
